« Back
NWS Peachtree City, Ga » Text Product » CSG Terminal Aerodrome Forecast


Printer-friendly Version
Current Version              Previous Versions:   1  2  3  4  5  6  7  8  9  

Terminal Aerodrome Forecast

148
FTUS42 KFFC 251738
TAFCSG
TAF
KCSG 251738Z 2518/2618 34004KT P6SM SCT070
     FM252000 04006KT P6SM SCT070 SCT250
     FM260100 08004KT P6SM SCT250
     FM261500 05005KT P6SM SCT045=

USA.gov is the U.S. government's official web portal to all federal, state and local government web resources and services.